createdAt,value
2017-04-10T00:00:21.026Z,15.20
2017-04-10T00:01:24.917Z,15.00
2017-04-10T00:02:28.931Z,15.00
2017-04-10T00:03:33.907Z,15.10
2017-04-10T00:04:37.412Z,15.30
2017-04-10T00:05:41.465Z,15.30
2017-04-10T00:06:44.957Z,15.40
2017-04-10T00:07:49.693Z,15.40
2017-04-10T00:08:53.408Z,15.30
2017-04-10T00:09:56.944Z,15.20
2017-04-10T00:11:00.904Z,15.20
2017-04-10T00:12:04.741Z,15.20
2017-04-10T00:13:09.533Z,15.20
2017-04-10T00:14:13.617Z,15.30
2017-04-10T00:15:18.065Z,15.20
2017-04-10T00:16:22.930Z,15.10
2017-04-10T00:17:27.179Z,15.00
2017-04-10T00:18:31.375Z,15.00
2017-04-10T00:19:36.073Z,15.00
2017-04-10T00:20:39.846Z,15.10
2017-04-10T00:21:43.801Z,15.20
2017-04-10T00:22:47.461Z,15.30
2017-04-10T00:23:51.955Z,15.30
2017-04-10T00:24:56.765Z,15.40
2017-04-10T00:26:00.660Z,15.60
2017-04-10T00:27:04.286Z,15.70
2017-04-10T00:28:08.693Z,15.70
2017-04-10T00:29:12.551Z,15.70
2017-04-10T00:30:16.835Z,15.80
2017-04-10T00:31:20.770Z,15.90
2017-04-10T00:32:24.430Z,15.80
2017-04-10T00:33:28.235Z,15.80
2017-04-10T00:34:31.861Z,15.70
2017-04-10T00:35:36.743Z,15.60
2017-04-10T00:36:40.644Z,15.50
2017-04-10T00:37:44.337Z,15.40
2017-04-10T00:38:48.420Z,15.40
2017-04-10T00:39:51.982Z,15.40
2017-04-10T00:40:56.601Z,15.40
2017-04-10T00:42:00.377Z,15.40
2017-04-10T00:43:04.417Z,15.40
2017-04-10T00:44:08.655Z,15.30
2017-04-10T00:45:12.770Z,15.30
2017-04-10T00:46:16.735Z,15.20
2017-04-10T00:47:20.536Z,15.10
2017-04-10T00:48:24.299Z,15.00
2017-04-10T00:49:28.004Z,15.00
2017-04-10T00:50:31.541Z,15.00
2017-04-10T00:51:35.380Z,15.00
2017-04-10T00:52:39.092Z,14.90
2017-04-10T00:53:44.371Z,14.80
2017-04-10T00:54:48.341Z,14.70
2017-04-10T00:55:52.120Z,14.50
2017-04-10T00:56:56.098Z,14.40
2017-04-10T00:58:00.181Z,14.20
2017-04-10T00:59:05.525Z,14.20
2017-04-10T01:00:09.481Z,14.20
2017-04-10T01:01:13.494Z,14.10
2017-04-10T01:02:17.553Z,14.00
2017-04-10T01:03:21.444Z,13.90
2017-04-10T01:04:25.475Z,14.00
2017-04-10T01:05:29.494Z,14.00
2017-04-10T01:06:33.537Z,13.90
2017-04-10T01:07:37.785Z,13.80
2017-04-10T01:08:41.602Z,13.80
2017-04-10T01:09:45.578Z,13.70
2017-04-10T01:10:49.167Z,13.80
2017-04-10T01:11:53.285Z,13.70
2017-04-10T01:12:57.992Z,13.70
2017-04-10T01:14:01.924Z,13.70
2017-04-10T01:15:06.143Z,13.60
2017-04-10T01:16:10.325Z,13.60
2017-04-10T01:17:15.004Z,13.60
2017-04-10T01:18:18.981Z,13.50
2017-04-10T01:19:23.041Z,13.40
2017-04-10T01:20:26.798Z,13.40
2017-04-10T01:21:31.673Z,13.30
2017-04-10T01:22:36.270Z,13.30
2017-04-10T01:23:40.287Z,13.30
2017-04-10T01:24:44.459Z,13.30
2017-04-10T01:25:49.185Z,13.20
2017-04-10T01:26:52.821Z,13.10
2017-04-10T01:27:57.093Z,13.00
2017-04-10T01:29:00.975Z,13.00
2017-04-10T01:30:05.110Z,13.00
2017-04-10T01:31:09.131Z,12.90
2017-04-10T01:32:13.077Z,12.90
2017-04-10T01:33:16.775Z,12.80
2017-04-10T01:34:20.432Z,12.70
2017-04-10T01:35:25.802Z,12.60
2017-04-10T01:36:29.675Z,12.40
2017-04-10T01:37:33.605Z,12.40
2017-04-10T01:38:37.897Z,12.40
2017-04-10T01:39:41.789Z,12.30
2017-04-10T01:40:46.826Z,12.20
2017-04-10T01:41:52.044Z,12.20
2017-04-10T01:42:56.200Z,12.20
2017-04-10T01:44:00.161Z,12.20
2017-04-10T01:45:04.863Z,12.10
2017-04-10T01:46:08.786Z,12.20
2017-04-10T01:47:12.610Z,12.20
2017-04-10T01:48:16.807Z,12.20
2017-04-10T01:49:20.418Z,12.10
2017-04-10T01:50:24.593Z,12.20
2017-04-10T01:51:28.370Z,12.10
2017-04-10T01:52:32.372Z,12.00
2017-04-10T01:53:37.207Z,11.90
2017-04-10T01:54:42.171Z,12.00
2017-04-10T01:55:46.119Z,12.00
2017-04-10T01:56:50.053Z,12.00
2017-04-10T01:57:53.743Z,12.00
2017-04-10T01:58:57.639Z,12.00
2017-04-10T02:00:01.490Z,12.00
2017-04-10T02:01:05.925Z,11.90
2017-04-10T02:02:10.094Z,11.90
2017-04-10T02:03:13.831Z,11.80
2017-04-10T02:04:17.777Z,11.70
2017-04-10T02:05:21.907Z,11.70
2017-04-10T02:06:25.669Z,11.70
2017-04-10T02:07:29.692Z,11.70
2017-04-10T02:08:33.596Z,11.70
2017-04-10T02:09:38.450Z,11.80
2017-04-10T02:10:42.435Z,11.90
2017-04-10T02:11:46.451Z,11.80
2017-04-10T02:12:50.610Z,11.70
2017-04-10T02:13:54.801Z,11.60
2017-04-10T02:14:58.935Z,11.50
2017-04-10T02:16:03.843Z,11.20
2017-04-10T02:17:07.227Z,11.20
2017-04-10T02:18:11.184Z,11.20
2017-04-10T02:19:15.125Z,11.20
2017-04-10T02:20:20.136Z,11.20
2017-04-10T02:21:24.180Z,11.20
2017-04-10T02:22:28.111Z,11.20
2017-04-10T02:23:32.172Z,11.10
2017-04-10T02:24:36.023Z,11.00
2017-04-10T02:25:39.936Z,10.90
2017-04-10T02:26:43.938Z,11.00
2017-04-10T02:27:47.903Z,11.00
2017-04-10T02:28:52.127Z,11.00
2017-04-10T02:29:56.201Z,11.10
2017-04-10T02:31:00.759Z,11.10
2017-04-10T02:32:04.482Z,11.10
2017-04-10T02:33:08.451Z,11.00
2017-04-10T02:34:12.480Z,11.10
2017-04-10T02:35:16.302Z,11.20
2017-04-10T02:36:19.925Z,11.20
2017-04-10T02:37:23.819Z,11.10
2017-04-10T02:38:27.740Z,11.10
2017-04-10T02:39:32.376Z,11.10
2017-04-10T02:40:36.259Z,11.20
2017-04-10T02:41:39.881Z,11.20
2017-04-10T02:42:43.716Z,11.20
2017-04-10T02:43:47.624Z,11.10
2017-04-10T02:44:51.465Z,11.20
2017-04-10T02:45:55.048Z,11.20
2017-04-10T02:46:58.836Z,11.30
2017-04-10T02:48:02.797Z,11.30
2017-04-10T02:49:06.526Z,11.30
2017-04-10T02:50:10.759Z,11.30
2017-04-10T02:51:14.625Z,11.30
2017-04-10T02:52:18.763Z,11.40
2017-04-10T02:53:22.633Z,11.40
2017-04-10T02:54:27.558Z,11.30
2017-04-10T02:55:31.583Z,11.30
2017-04-10T02:56:36.250Z,11.30
2017-04-10T02:57:40.099Z,11.20
2017-04-10T02:58:43.992Z,11.20
2017-04-10T02:59:48.769Z,11.20
2017-04-10T03:00:52.458Z,11.30
2017-04-10T03:01:56.259Z,11.20
2017-04-10T03:02:59.858Z,11.30
2017-04-10T03:04:03.676Z,11.40
2017-04-10T03:05:07.609Z,11.40
2017-04-10T03:06:11.476Z,11.40
2017-04-10T03:07:15.386Z,11.40
2017-04-10T03:08:19.257Z,11.40
2017-04-10T03:09:22.954Z,11.30
2017-04-10T03:10:26.693Z,11.30
2017-04-10T03:11:30.474Z,11.30
2017-04-10T03:12:34.251Z,11.30
2017-04-10T03:13:38.294Z,11.30
2017-04-10T03:14:42.509Z,11.20
2017-04-10T03:15:46.853Z,11.10
2017-04-10T03:16:50.861Z,11.20
2017-04-10T03:17:54.648Z,11.10
2017-04-10T03:18:59.218Z,11.10
2017-04-10T03:20:03.061Z,11.20
2017-04-10T03:21:07.775Z,11.10
2017-04-10T03:22:12.033Z,11.10
2017-04-10T03:23:15.820Z,11.10
2017-04-10T03:24:19.651Z,11.10
2017-04-10T03:25:23.216Z,11.20
2017-04-10T03:26:26.856Z,11.30
2017-04-10T03:27:30.723Z,11.30
2017-04-10T03:28:35.196Z,11.20
2017-04-10T03:29:38.691Z,11.10
2017-04-10T03:30:42.632Z,11.10
2017-04-10T03:31:46.743Z,11.10
2017-04-10T03:32:50.748Z,11.10
2017-04-10T03:33:54.830Z,11.20
2017-04-10T03:34:58.757Z,11.30
2017-04-10T03:36:02.726Z,11.30
2017-04-10T03:37:07.098Z,11.40
2017-04-10T03:38:11.349Z,11.40
2017-04-10T03:39:15.153Z,11.40
2017-04-10T03:40:18.872Z,11.40
2017-04-10T03:41:22.926Z,11.20
2017-04-10T03:42:27.306Z,11.10
2017-04-10T03:43:31.187Z,11.10
2017-04-10T03:44:34.624Z,11.00
2017-04-10T03:45:39.402Z,11.00
2017-04-10T03:46:42.988Z,10.90
2017-04-10T03:47:46.961Z,10.80
2017-04-10T03:48:50.660Z,10.90
2017-04-10T03:49:54.861Z,10.90
2017-04-10T03:50:58.951Z,10.90
2017-04-10T03:52:03.657Z,10.80
2017-04-10T03:53:07.576Z,10.70
2017-04-10T03:54:11.503Z,10.60
2017-04-10T03:55:16.193Z,10.60
2017-04-10T03:56:20.258Z,10.60
2017-04-10T03:57:24.033Z,10.70
2017-04-10T03:58:27.778Z,10.70
2017-04-10T03:59:32.392Z,10.70
2017-04-10T04:00:36.016Z,10.70
2017-04-10T04:01:40.016Z,10.80
2017-04-10T04:02:43.724Z,10.80
2017-04-10T04:03:47.445Z,10.80
2017-04-10T04:04:51.511Z,10.90
2017-04-10T04:05:55.115Z,10.80
2017-04-10T04:06:58.818Z,10.90
2017-04-10T04:08:02.949Z,10.90
2017-04-10T04:09:07.839Z,10.90
2017-04-10T04:10:11.836Z,10.90
2017-04-10T04:11:15.672Z,10.80
2017-04-10T04:12:19.730Z,10.80
2017-04-10T04:13:23.664Z,10.80
2017-04-10T04:14:27.408Z,10.70
2017-04-10T04:15:31.475Z,10.80
2017-04-10T04:16:35.428Z,10.80
2017-04-10T04:17:38.978Z,10.80
2017-04-10T04:18:43.224Z,10.80
2017-04-10T04:19:47.436Z,10.80
2017-04-10T04:21:59.540Z,10.70
2017-04-10T04:23:03.220Z,10.40
2017-04-10T04:24:07.045Z,10.40
2017-04-10T04:25:11.105Z,10.40
2017-04-10T04:26:14.970Z,10.20
2017-04-10T04:27:18.505Z,10.20
2017-04-10T04:28:22.178Z,10.20
2017-04-10T04:29:26.077Z,10.20
2017-04-10T04:30:29.941Z,10.20
2017-04-10T04:31:33.595Z,10.30
2017-04-10T04:32:37.206Z,10.10
2017-04-10T04:33:41.745Z,10.00
2017-04-10T04:34:45.799Z,9.90
2017-04-10T04:35:49.532Z,9.80
2017-04-10T04:36:53.330Z,9.70
2017-04-10T04:37:57.755Z,9.60
2017-04-10T04:39:01.628Z,9.60
2017-04-10T04:40:05.674Z,9.60
2017-04-10T04:41:09.624Z,9.60
2017-04-10T04:42:13.662Z,9.60
2017-04-10T04:43:17.463Z,9.60
2017-04-10T04:44:21.565Z,9.60
2017-04-10T04:45:25.569Z,9.60
2017-04-10T04:46:29.509Z,9.60
2017-04-10T04:47:33.465Z,9.60
2017-04-10T04:48:38.843Z,9.60
2017-04-10T04:49:42.761Z,9.60
2017-04-10T04:50:46.865Z,9.60
2017-04-10T04:51:51.064Z,9.40
2017-04-10T04:52:54.797Z,9.40
2017-04-10T04:53:58.790Z,9.40
2017-04-10T04:55:03.399Z,9.20
2017-04-10T04:56:07.936Z,9.20
2017-04-10T04:57:11.740Z,9.20
2017-04-10T04:58:15.568Z,9.20
2017-04-10T04:59:19.503Z,9.20
2017-04-10T05:00:24.211Z,9.20
2017-04-10T05:01:28.210Z,9.10
2017-04-10T05:02:31.928Z,9.20
2017-04-10T05:03:35.920Z,9.20
2017-04-10T05:04:39.337Z,9.10
2017-04-10T05:05:43.161Z,9.10
2017-04-10T05:06:47.241Z,9.00
2017-04-10T05:07:51.209Z,9.00
2017-04-10T05:08:54.844Z,9.10
2017-04-10T05:09:58.674Z,9.00
2017-04-10T05:11:02.833Z,8.90
2017-04-10T05:12:06.942Z,8.90
2017-04-10T05:13:10.699Z,8.90
2017-04-10T05:14:14.325Z,8.80
2017-04-10T05:15:19.208Z,8.80
2017-04-10T05:16:24.683Z,8.70
2017-04-10T05:17:28.701Z,8.80
2017-04-10T05:18:32.955Z,8.80
2017-04-10T05:19:36.543Z,8.80
2017-04-10T05:20:40.564Z,8.80
2017-04-10T05:21:44.333Z,8.70
2017-04-10T05:22:48.728Z,8.70
2017-04-10T05:23:55.574Z,8.80
2017-04-10T05:24:59.428Z,8.90
2017-04-10T05:26:03.865Z,8.90
2017-04-10T05:27:07.935Z,8.80
2017-04-10T05:28:11.708Z,8.70
2017-04-10T05:29:16.049Z,8.70
2017-04-10T05:30:19.392Z,8.70
2017-04-10T05:31:23.283Z,8.80
2017-04-10T05:32:28.173Z,8.80
2017-04-10T05:33:32.369Z,8.90
2017-04-10T05:34:36.850Z,8.90
2017-04-10T05:35:40.950Z,9.00
2017-04-10T05:36:44.488Z,9.00
2017-04-10T05:37:48.896Z,9.00
2017-04-10T05:38:52.717Z,9.00
2017-04-10T05:39:56.595Z,8.90
2017-04-10T05:41:01.403Z,8.90
2017-04-10T05:42:06.154Z,9.00
2017-04-10T05:43:10.024Z,9.00
2017-04-10T05:44:14.113Z,8.90
2017-04-10T05:45:18.040Z,8.90
2017-04-10T05:46:21.730Z,8.90
2017-04-10T05:47:25.539Z,8.80
2017-04-10T05:48:29.250Z,8.70
2017-04-10T05:49:34.533Z,8.70
2017-04-10T05:50:38.494Z,8.80
2017-04-10T05:51:42.252Z,8.70
2017-04-10T05:52:46.127Z,8.60
2017-04-10T05:53:49.689Z,8.60
2017-04-10T05:54:53.401Z,8.60
2017-04-10T05:55:57.211Z,8.70
2017-04-10T05:57:02.488Z,8.70
2017-04-10T05:58:06.246Z,8.60
2017-04-10T05:59:10.172Z,8.60
2017-04-10T06:00:13.870Z,8.60
2017-04-10T06:01:17.836Z,8.60
2017-04-10T06:02:21.718Z,8.70
2017-04-10T06:03:27.673Z,8.60
2017-04-10T06:04:31.238Z,8.70
2017-04-10T06:05:35.161Z,8.70
2017-04-10T06:06:39.185Z,8.60
2017-04-10T06:07:42.858Z,8.60
2017-04-10T06:08:46.778Z,8.40
2017-04-10T06:09:50.345Z,8.40
2017-04-10T06:10:53.877Z,8.40
2017-04-10T06:11:57.691Z,8.50
2017-04-10T06:13:02.493Z,8.40
2017-04-10T06:14:06.580Z,8.40
2017-04-10T06:15:10.314Z,8.40
2017-04-10T06:16:13.931Z,8.40
2017-04-10T06:17:17.863Z,8.40
2017-04-10T06:18:21.411Z,8.40
2017-04-10T06:19:25.180Z,8.40
2017-04-10T06:20:28.820Z,8.40
2017-04-10T06:21:32.802Z,8.40
2017-04-10T06:22:36.506Z,8.40
2017-04-10T06:23:40.036Z,8.40
2017-04-10T06:24:44.896Z,8.50
2017-04-10T06:25:48.695Z,8.50
2017-04-10T06:26:52.941Z,8.50
2017-04-10T06:27:57.367Z,8.50
2017-04-10T06:29:01.425Z,8.50
2017-04-10T06:30:05.329Z,8.50
2017-04-10T06:31:09.043Z,8.50
2017-04-10T06:32:12.987Z,8.50
2017-04-10T06:33:17.051Z,8.40
2017-04-10T06:34:20.943Z,8.40
2017-04-10T06:35:24.817Z,8.40
2017-04-10T06:36:29.359Z,8.40
2017-04-10T06:37:34.051Z,8.40
2017-04-10T06:38:38.520Z,8.30
2017-04-10T06:39:42.017Z,8.30
2017-04-10T06:40:45.756Z,8.30
2017-04-10T06:41:49.646Z,8.30
2017-04-10T06:42:53.770Z,8.30
2017-04-10T06:43:57.761Z,8.30
2017-04-10T06:45:02.160Z,8.20
2017-04-10T06:46:05.988Z,8.30
2017-04-10T06:47:10.466Z,8.30
2017-04-10T06:48:14.224Z,8.30
2017-04-10T06:49:17.930Z,8.30
2017-04-10T06:50:21.650Z,8.20
2017-04-10T06:51:25.330Z,8.20
2017-04-10T06:52:29.321Z,8.20
2017-04-10T06:53:33.127Z,8.30
2017-04-10T06:54:38.136Z,8.20
2017-04-10T06:55:41.847Z,8.30
2017-04-10T06:56:45.659Z,8.30
2017-04-10T06:57:51.184Z,8.30
2017-04-10T06:58:55.062Z,8.30
2017-04-10T06:59:59.052Z,8.30
2017-04-10T07:01:03.273Z,8.30
2017-04-10T07:02:07.582Z,8.40
2017-04-10T07:03:11.572Z,8.30
2017-04-10T07:04:15.372Z,8.30
2017-04-10T07:05:19.166Z,8.20
2017-04-10T07:06:23.293Z,8.20
2017-04-10T07:07:26.317Z,8.20
2017-04-10T07:08:30.214Z,8.20
2017-04-10T07:09:34.094Z,8.20
2017-04-10T07:10:37.871Z,8.20
2017-04-10T07:11:41.696Z,8.10
2017-04-10T07:12:45.450Z,8.10
2017-04-10T07:13:49.217Z,8.10
2017-04-10T07:14:52.912Z,8.10
2017-04-10T07:15:56.834Z,8.20
2017-04-10T07:17:00.592Z,8.10
2017-04-10T07:18:04.340Z,8.20
2017-04-10T07:19:08.024Z,8.20
2017-04-10T07:20:11.768Z,8.20
2017-04-10T07:21:15.604Z,8.10
2017-04-10T07:22:19.174Z,8.10
2017-04-10T07:23:23.659Z,8.10
2017-04-10T07:24:27.082Z,8.10
2017-04-10T07:25:30.627Z,8.10
2017-04-10T07:26:34.625Z,8.10
2017-04-10T07:27:38.956Z,8.10
2017-04-10T07:28:42.613Z,8.10
2017-04-10T07:29:46.191Z,8.10
2017-04-10T07:30:49.960Z,8.10
2017-04-10T07:31:53.641Z,8.00
2017-04-10T07:32:57.418Z,8.10
2017-04-10T07:34:02.244Z,8.10
2017-04-10T07:35:06.072Z,8.10
2017-04-10T07:36:09.992Z,8.00
2017-04-10T07:37:14.066Z,8.00
2017-04-10T07:38:17.935Z,8.00
2017-04-10T07:39:22.155Z,8.00
2017-04-10T07:40:25.891Z,8.00
2017-04-10T07:41:30.030Z,8.00
2017-04-10T07:42:34.248Z,8.10
2017-04-10T07:43:38.256Z,8.00
2017-04-10T07:44:42.203Z,8.00
2017-04-10T07:45:46.023Z,8.00
2017-04-10T07:46:49.766Z,8.00
2017-04-10T07:47:53.715Z,8.00
2017-04-10T07:48:57.746Z,8.00
2017-04-10T07:50:02.395Z,8.00
2017-04-10T07:51:06.642Z,8.00
2017-04-10T07:52:10.477Z,7.90
2017-04-10T07:53:14.575Z,7.90
2017-04-10T07:54:19.180Z,7.90
2017-04-10T07:55:23.180Z,7.90
2017-04-10T07:56:27.266Z,7.90
2017-04-10T07:57:31.064Z,7.90
2017-04-10T07:58:35.710Z,7.90
2017-04-10T07:59:39.424Z,7.90
2017-04-10T08:00:43.300Z,7.80
2017-04-10T08:01:47.195Z,7.90
2017-04-10T08:02:51.859Z,7.90
2017-04-10T08:03:55.941Z,7.90
2017-04-10T08:04:59.533Z,7.90
2017-04-10T08:06:04.741Z,7.90
2017-04-10T08:07:08.218Z,7.90
2017-04-10T08:08:11.828Z,7.90
2017-04-10T08:09:15.427Z,7.80
2017-04-10T08:10:19.364Z,7.90
2017-04-10T08:11:23.847Z,7.90
2017-04-10T08:13:40.526Z,7.90
2017-04-10T08:14:45.229Z,7.90
2017-04-10T08:15:49.126Z,8.00
2017-04-10T08:16:52.799Z,7.90
2017-04-10T08:17:56.654Z,7.90
2017-04-10T08:19:00.763Z,7.80
2017-04-10T08:20:04.340Z,7.80
2017-04-10T08:21:08.231Z,7.80
2017-04-10T08:22:11.731Z,7.80
2017-04-10T08:23:15.659Z,7.90
2017-04-10T08:24:19.552Z,7.90
2017-04-10T08:25:23.540Z,7.90
2017-04-10T08:26:27.346Z,7.90
2017-04-10T08:27:31.169Z,7.90
2017-04-10T08:28:34.829Z,7.90
2017-04-10T08:29:38.627Z,7.90
2017-04-10T08:30:42.313Z,8.00
2017-04-10T08:31:46.178Z,7.90
2017-04-10T08:32:49.772Z,7.80
2017-04-10T08:33:53.736Z,7.90
2017-04-10T08:34:58.668Z,7.80
2017-04-10T08:36:02.397Z,7.90
2017-04-10T08:37:06.596Z,7.90
2017-04-10T08:38:10.342Z,7.80
2017-04-10T08:39:13.915Z,7.80
2017-04-10T08:40:17.703Z,7.80
2017-04-10T08:41:21.387Z,7.80
2017-04-10T08:42:24.912Z,7.80
2017-04-10T08:43:28.753Z,7.80
2017-04-10T08:44:32.365Z,7.80
2017-04-10T08:45:36.045Z,7.80
2017-04-10T08:46:39.689Z,7.80
2017-04-10T08:47:43.654Z,7.70
2017-04-10T08:48:47.660Z,7.80
2017-04-10T08:49:51.364Z,7.70
2017-04-10T08:50:55.311Z,7.80
2017-04-10T08:51:59.127Z,7.80
2017-04-10T08:53:02.907Z,7.90
2017-04-10T08:54:07.243Z,7.90
2017-04-10T08:55:10.755Z,7.90
2017-04-10T08:56:14.341Z,7.90
2017-04-10T08:57:18.293Z,7.90
2017-04-10T08:58:22.171Z,7.90
2017-04-10T08:59:28.024Z,7.80
2017-04-10T09:00:32.141Z,7.80
2017-04-10T09:01:36.107Z,7.70
2017-04-10T09:02:40.042Z,7.70
2017-04-10T09:03:44.135Z,7.70
2017-04-10T09:04:48.119Z,7.70
2017-04-10T09:05:52.889Z,7.60
2017-04-10T09:06:56.874Z,7.60
2017-04-10T09:08:01.153Z,7.70
2017-04-10T09:09:05.258Z,7.60
2017-04-10T09:10:09.119Z,7.60
2017-04-10T09:11:13.085Z,7.70
2017-04-10T09:12:16.938Z,7.70
2017-04-10T09:13:21.130Z,7.60
2017-04-10T09:14:24.850Z,7.60
2017-04-10T09:15:28.646Z,7.60
2017-04-10T09:16:32.671Z,7.60
2017-04-10T09:17:36.907Z,7.50
2017-04-10T09:18:40.662Z,7.40
2017-04-10T09:19:44.364Z,7.40
2017-04-10T09:20:48.271Z,7.40
2017-04-10T09:21:52.727Z,7.30
2017-04-10T09:22:56.841Z,7.30
2017-04-10T09:24:00.478Z,7.20
2017-04-10T09:25:04.652Z,7.10
2017-04-10T09:26:08.277Z,7.10
2017-04-10T09:27:12.298Z,7.10
2017-04-10T09:28:15.848Z,7.00
2017-04-10T09:29:19.766Z,7.00
2017-04-10T09:30:23.524Z,6.90
2017-04-10T09:31:27.545Z,6.90
2017-04-10T09:32:31.352Z,6.90
2017-04-10T09:33:35.096Z,7.00
2017-04-10T09:34:38.936Z,7.00
2017-04-10T09:35:42.837Z,7.00
2017-04-10T09:36:46.456Z,6.90
2017-04-10T09:37:50.557Z,6.90
2017-04-10T09:38:54.616Z,6.90
2017-04-10T09:39:58.539Z,6.90
2017-04-10T09:41:02.463Z,6.90
2017-04-10T09:42:06.146Z,6.90
2017-04-10T09:43:10.135Z,6.90
2017-04-10T09:44:13.896Z,6.80
2017-04-10T09:45:17.600Z,6.80
2017-04-10T09:46:21.289Z,6.80
2017-04-10T09:47:26.135Z,6.70
2017-04-10T09:48:29.924Z,6.70
2017-04-10T09:49:34.016Z,6.60
2017-04-10T09:50:37.924Z,6.70
2017-04-10T09:51:42.064Z,6.60
2017-04-10T09:52:46.007Z,6.60
2017-04-10T09:53:49.819Z,6.50
2017-04-10T09:54:53.274Z,6.60
2017-04-10T09:55:57.101Z,6.50
2017-04-10T09:57:01.037Z,6.50
2017-04-10T09:58:05.174Z,6.50
2017-04-10T09:59:08.888Z,6.50
2017-04-10T10:00:14.583Z,6.50
2017-04-10T10:01:18.626Z,6.40
2017-04-10T10:02:22.554Z,6.40
2017-04-10T10:03:26.348Z,6.40
2017-04-10T10:04:30.252Z,6.40
2017-04-10T10:05:34.089Z,6.40
2017-04-10T10:06:37.734Z,6.30
2017-04-10T10:07:41.414Z,6.30
2017-04-10T10:08:45.898Z,6.30
2017-04-10T10:09:50.426Z,6.20
2017-04-10T10:10:54.794Z,6.20
2017-04-10T10:11:58.621Z,6.20
2017-04-10T10:13:02.486Z,6.20
2017-04-10T10:14:06.105Z,6.30
2017-04-10T10:15:09.975Z,6.30
2017-04-10T10:16:14.133Z,6.40
2017-04-10T10:17:18.660Z,6.50
2017-04-10T10:18:22.317Z,6.50
2017-04-10T10:19:26.406Z,6.60
2017-04-10T10:20:30.196Z,6.60
2017-04-10T10:21:33.995Z,6.60
2017-04-10T10:22:37.948Z,6.60
2017-04-10T10:23:41.633Z,6.60
2017-04-10T10:24:45.520Z,6.60
2017-04-10T10:25:49.577Z,6.50
2017-04-10T10:26:54.205Z,6.40
2017-04-10T10:27:58.219Z,6.50
2017-04-10T10:29:01.880Z,6.50
2017-04-10T10:30:05.420Z,6.50
2017-04-10T10:31:09.006Z,6.50
2017-04-10T10:32:12.559Z,6.50
2017-04-10T10:33:16.682Z,6.60
2017-04-10T10:34:20.957Z,6.50
2017-04-10T10:35:24.612Z,6.50
2017-04-10T10:36:29.289Z,6.50
2017-04-10T10:37:33.094Z,6.50
2017-04-10T10:38:36.836Z,6.50
2017-04-10T10:39:40.609Z,6.60
2017-04-10T10:40:44.707Z,6.70
2017-04-10T10:41:48.539Z,6.60
2017-04-10T10:42:52.399Z,6.70
2017-04-10T10:43:56.482Z,6.70
2017-04-10T10:44:59.923Z,6.70
2017-04-10T10:46:03.833Z,6.70
2017-04-10T10:47:07.629Z,6.70
2017-04-10T10:48:11.781Z,6.70
2017-04-10T10:49:15.909Z,6.70
2017-04-10T10:50:19.824Z,6.70
2017-04-10T10:51:23.411Z,6.70
2017-04-10T10:52:27.112Z,6.70
2017-04-10T10:53:31.338Z,6.80
2017-04-10T10:54:34.935Z,6.80
2017-04-10T10:55:38.788Z,6.80
2017-04-10T10:56:42.775Z,6.80
2017-04-10T10:57:46.513Z,6.80
2017-04-10T10:58:50.546Z,6.70
2017-04-10T10:59:54.340Z,6.70
2017-04-10T11:00:58.755Z,6.70
2017-04-10T11:02:02.419Z,6.80
2017-04-10T11:03:06.157Z,6.80
2017-04-10T11:04:10.036Z,6.80
2017-04-10T11:05:13.914Z,6.80
2017-04-10T11:06:17.876Z,6.80
2017-04-10T11:07:21.807Z,6.80
2017-04-10T11:08:25.674Z,6.80
2017-04-10T11:09:30.215Z,6.80
2017-04-10T11:10:35.078Z,6.80
2017-04-10T11:11:39.080Z,6.70
2017-04-10T11:12:43.289Z,6.70
2017-04-10T11:13:47.129Z,6.60
2017-04-10T11:14:50.614Z,6.50
2017-04-10T11:15:54.573Z,6.50
2017-04-10T11:16:58.363Z,6.50
2017-04-10T11:18:02.259Z,6.60
2017-04-10T11:19:05.997Z,6.50
2017-04-10T11:20:09.729Z,6.50
2017-04-10T11:21:13.754Z,6.50
2017-04-10T11:22:17.691Z,6.40
2017-04-10T11:23:21.748Z,6.40
2017-04-10T11:24:25.545Z,6.40
2017-04-10T11:25:29.607Z,6.30
2017-04-10T11:26:33.674Z,6.30
2017-04-10T11:27:37.590Z,6.30
2017-04-10T11:28:41.465Z,6.20
2017-04-10T11:29:45.322Z,6.20
2017-04-10T11:30:49.117Z,6.20
2017-04-10T11:31:52.972Z,6.20
2017-04-10T11:32:57.925Z,6.20
2017-04-10T11:34:01.404Z,6.30
2017-04-10T11:35:06.138Z,6.20
2017-04-10T11:36:09.996Z,6.30
2017-04-10T11:37:14.032Z,6.30
2017-04-10T11:38:18.009Z,6.30
2017-04-10T11:39:21.810Z,6.30
2017-04-10T11:40:25.651Z,6.30
2017-04-10T11:41:29.467Z,6.40
2017-04-10T11:42:33.424Z,6.40
2017-04-10T11:43:40.286Z,6.50
2017-04-10T11:44:44.567Z,6.50
2017-04-10T11:45:48.696Z,6.50
2017-04-10T11:46:52.537Z,6.50
2017-04-10T11:47:57.234Z,6.50
2017-04-10T11:49:00.914Z,6.60
2017-04-10T11:50:04.583Z,6.60
2017-04-10T11:51:08.399Z,6.50
2017-04-10T11:52:12.100Z,6.50
2017-04-10T11:53:16.046Z,6.50
2017-04-10T11:54:20.173Z,6.50
2017-04-10T11:55:23.907Z,6.50
2017-04-10T11:56:27.708Z,6.50
2017-04-10T11:57:32.571Z,6.50
2017-04-10T11:58:36.466Z,6.50
2017-04-10T11:59:40.613Z,6.50
2017-04-10T12:00:44.482Z,6.50
2017-04-10T12:01:49.018Z,6.40
2017-04-10T12:02:52.569Z,6.50
2017-04-10T12:03:56.264Z,6.50
2017-04-10T12:05:01.114Z,6.50
2017-04-10T12:06:04.808Z,6.60
2017-04-10T12:07:08.783Z,6.70
2017-04-10T12:08:12.251Z,6.70
2017-04-10T12:09:16.172Z,6.70
2017-04-10T12:10:19.731Z,6.70
2017-04-10T12:11:23.569Z,6.70
2017-04-10T12:12:27.203Z,6.70
2017-04-10T12:13:30.969Z,6.70
2017-04-10T12:14:34.510Z,6.60
2017-04-10T12:15:38.919Z,6.50
2017-04-10T12:16:42.368Z,6.50
2017-04-10T12:17:46.927Z,6.50
2017-04-10T12:18:51.043Z,6.50
2017-04-10T12:19:54.865Z,6.50
2017-04-10T12:20:58.672Z,6.50
2017-04-10T12:22:02.595Z,6.40
2017-04-10T12:23:06.315Z,6.50
2017-04-10T12:24:10.086Z,6.50
2017-04-10T12:25:13.863Z,6.50
2017-04-10T12:26:17.753Z,6.60
2017-04-10T12:27:21.938Z,6.50
2017-04-10T12:28:25.415Z,6.50
2017-04-10T12:29:29.002Z,6.50
2017-04-10T12:30:32.837Z,6.60
2017-04-10T12:31:36.872Z,6.60
2017-04-10T12:32:40.547Z,6.60
2017-04-10T12:33:44.033Z,6.60
2017-04-10T12:34:47.890Z,6.60
2017-04-10T12:35:51.548Z,6.70
2017-04-10T12:36:56.354Z,6.70
2017-04-10T12:38:00.195Z,6.70
2017-04-10T12:39:04.270Z,6.60
2017-04-10T12:40:08.005Z,6.70
2017-04-10T12:41:11.663Z,6.60
2017-04-10T12:42:15.317Z,6.70
2017-04-10T12:43:19.048Z,6.60
2017-04-10T12:44:23.009Z,6.60
2017-04-10T12:45:27.570Z,6.50
2017-04-10T12:46:31.243Z,6.50
2017-04-10T12:47:34.944Z,6.50
2017-04-10T12:48:42.386Z,6.60
2017-04-10T12:49:46.211Z,6.50
2017-04-10T12:50:51.081Z,6.50
2017-04-10T12:51:55.532Z,6.50
2017-04-10T12:52:59.339Z,6.40
2017-04-10T12:54:03.142Z,6.40
2017-04-10T12:55:06.798Z,6.40
2017-04-10T12:56:10.262Z,6.40
2017-04-10T12:57:13.962Z,6.40
2017-04-10T12:58:17.986Z,6.40
2017-04-10T12:59:21.893Z,6.40
2017-04-10T13:00:25.568Z,6.50
2017-04-10T13:01:29.929Z,6.40
2017-04-10T13:02:34.895Z,6.40
2017-04-10T13:03:38.634Z,6.30
2017-04-10T13:04:42.080Z,6.30
2017-04-10T13:05:45.737Z,6.30
2017-04-10T13:06:49.717Z,6.30
2017-04-10T13:07:53.748Z,6.20
2017-04-10T13:08:57.392Z,6.20
2017-04-10T13:10:02.062Z,6.10
2017-04-10T13:11:05.953Z,6.20
2017-04-10T13:12:09.789Z,6.20
2017-04-10T13:13:13.448Z,6.30
2017-04-10T13:14:18.253Z,6.30
2017-04-10T13:15:22.278Z,6.30
2017-04-10T13:16:25.850Z,6.30
2017-04-10T13:17:29.457Z,6.30
2017-04-10T13:18:33.383Z,6.40
2017-04-10T13:19:38.600Z,6.30
2017-04-10T13:20:42.268Z,6.40
2017-04-10T13:21:46.072Z,6.40
2017-04-10T13:22:49.879Z,6.40
2017-04-10T13:23:53.404Z,6.40
2017-04-10T13:24:58.177Z,6.40
2017-04-10T13:26:01.989Z,6.40
2017-04-10T13:27:05.664Z,6.40
2017-04-10T13:28:09.765Z,6.50
2017-04-10T13:29:13.754Z,6.50
2017-04-10T13:30:17.599Z,6.50
2017-04-10T13:31:21.046Z,6.60
2017-04-10T13:32:24.866Z,6.60
2017-04-10T13:33:29.487Z,6.60
2017-04-10T13:34:33.714Z,6.60
2017-04-10T13:35:37.860Z,6.70
2017-04-10T13:36:41.773Z,6.70
2017-04-10T13:37:45.907Z,6.70
2017-04-10T13:38:49.686Z,6.70
2017-04-10T13:39:53.627Z,6.70
2017-04-10T13:40:57.680Z,6.70
2017-04-10T13:42:02.024Z,6.70
2017-04-10T13:43:05.994Z,6.70
2017-04-10T13:44:10.067Z,6.80
2017-04-10T13:45:14.284Z,6.80
2017-04-10T13:46:18.253Z,6.80
2017-04-10T13:47:21.868Z,6.80
2017-04-10T13:48:25.759Z,6.80
2017-04-10T13:49:29.479Z,6.90
2017-04-10T13:50:33.345Z,6.90
2017-04-10T13:51:37.149Z,6.90
2017-04-10T13:52:41.006Z,6.90
2017-04-10T13:53:44.864Z,6.90
2017-04-10T13:54:48.817Z,6.90
2017-04-10T13:55:52.695Z,6.90
2017-04-10T13:56:56.769Z,6.90
2017-04-10T13:58:00.343Z,6.90
2017-04-10T13:59:04.476Z,6.90
2017-04-10T14:00:08.312Z,6.90
2017-04-10T14:01:12.045Z,7.00
2017-04-10T14:02:15.990Z,7.00
2017-04-10T14:03:20.350Z,7.00
2017-04-10T14:04:24.197Z,7.00